Time;durP1;ratioP1;P1;durP2;ratioP2;P2;SDS_P1;SDS_P2;PMS_P1;PMS_P2;Temp;Humidity;BMP_temperature;BMP_pressure;BME280_temperature;BME280_humidity;BME280_pressure;Samples;Min_cycle;Max_cycle;Signal;HPM_P1;HPM_P2
2021/03/18 00:00:59;;;;;;;22.85;9.23;;;27.40;91.40;;;;;;5005549;28;20026;-45
2021/03/18 00:04:27;;;;;;;33.30;9.57;;;27.40;91.20;;;;;;5020770;28;20085;-47
2021/03/18 00:07:15;;;;;;;20.20;8.18;;;27.40;91.20;;;;;;5003131;28;20044;-45
2021/03/18 00:10:13;;;;;;;32.58;16.25;;;27.40;91.20;;;;;;5007067;28;20058;-47
2021/03/18 00:13:04;;;;;;;19.63;9.05;;;27.40;91.10;;;;;;5042142;28;20033;-45
2021/03/18 00:15:48;;;;;;;17.67;6.72;;;27.30;91.10;;;;;;5020701;28;20063;-45
2021/03/18 00:18:29;;;;;;;19.48;7.15;;;27.30;91.10;;;;;;5021074;28;20389;-51
2021/03/18 00:21:02;;;;;;;17.20;6.28;;;27.30;91.10;;;;;;5002008;28;20030;-46
2021/03/18 00:24:03;;;;;;;18.02;6.35;;;27.30;91.10;;;;;;5002145;28;20394;-47
2021/03/18 00:26:53;;;;;;;14.40;5.38;;;27.30;91.00;;;;;;4982294;28;20078;-46
2021/03/18 00:32:47;;;;;;;13.23;4.82;;;27.30;91.00;;;;;;5020939;28;20020;-45
2021/03/18 00:35:18;;;;;;;12.00;5.18;;;27.30;90.90;;;;;;5020486;28;20067;-50
2021/03/18 00:37:57;;;;;;;14.52;5.65;;;27.30;90.90;;;;;;5003831;28;20070;-44
2021/03/18 00:40:39;;;;;;;16.45;4.97;;;27.30;90.90;;;;;;5018026;28;20029;-45
2021/03/18 00:43:34;;;;;;;12.48;4.95;;;27.30;90.70;;;;;;5020863;28;20060;-49
2021/03/18 00:46:21;;;;;;;16.50;5.55;;;27.20;90.40;;;;;;5020329;28;20075;-45
2021/03/18 00:48:50;;;;;;;14.20;4.97;;;27.20;90.40;;;;;;5020654;28;20046;-46
2021/03/18 00:51:39;;;;;;;9.73;5.18;;;27.20;90.10;;;;;;5021118;28;20026;-48
2021/03/18 00:57:37;;;;;;;13.07;5.00;;;27.20;90.00;;;;;;5003169;28;20038;-47
2021/03/18 01:00:44;;;;;;;17.88;5.25;;;27.20;89.90;;;;;;5006929;28;20025;-46
2021/03/18 01:03:32;;;;;;;11.65;4.60;;;27.20;89.80;;;;;;5018458;28;20025;-45
2021/03/18 01:07:02;;;;;;;14.27;4.97;;;27.10;89.60;;;;;;5012958;28;20045;-44
2021/03/18 01:10:03;;;;;;;10.45;4.55;;;27.10;89.50;;;;;;5060267;28;20091;-49
2021/03/18 01:12:54;;;;;;;10.50;4.78;;;27.10;89.30;;;;;;4997593;28;20222;-47
2021/03/18 01:15:33;;;;;;;8.93;5.20;;;27.10;89.30;;;;;;5008720;28;20061;-45
2021/03/18 01:18:23;;;;;;;10.63;4.80;;;27.10;89.10;;;;;;5022386;28;20101;-45
2021/03/18 01:21:22;;;;;;;13.48;5.30;;;27.10;89.00;;;;;;5020314;28;20121;-52
2021/03/18 01:24:16;;;;;;;13.15;4.78;;;27.10;89.00;;;;;;5033750;28;20164;-45
2021/03/18 01:27:00;;;;;;;13.23;4.43;;;27.00;88.90;;;;;;5022774;28;20034;-49
2021/03/18 01:35:25;;;;;;;9.95;4.85;;;27.10;88.50;;;;;;5012481;28;20101;-46
2021/03/18 01:37:52;;;;;;;11.35;4.82;;;27.10;88.00;;;;;;5040194;28;20106;-49
2021/03/18 01:40:24;;;;;;;10.50;4.80;;;27.00;87.80;;;;;;5022517;28;20207;-48
2021/03/18 01:42:51;;;;;;;12.25;4.90;;;27.00;87.60;;;;;;5040219;28;20009;-48
2021/03/18 01:45:19;;;;;;;14.63;4.15;;;27.00;87.70;;;;;;5040164;28;20225;-47
2021/03/18 01:47:47;;;;;;;17.40;5.10;;;27.00;87.40;;;;;;5024905;28;20079;-49
2021/03/18 01:50:16;;;;;;;13.85;4.82;;;27.00;87.30;;;;;;5013923;28;20337;-49
2021/03/18 01:52:43;;;;;;;11.07;4.70;;;27.00;87.40;;;;;;5004147;28;20026;-46
2021/03/18 01:55:32;;;;;;;14.30;5.43;;;27.00;87.70;;;;;;5003985;28;20093;-46
2021/03/18 01:57:59;;;;;;;12.68;4.88;;;27.00;87.90;;;;;;4989987;28;20318;-46
2021/03/18 02:00:28;;;;;;;9.70;4.75;;;27.00;87.40;;;;;;5003601;28;20246;-50
2021/03/18 02:02:57;;;;;;;13.50;4.60;;;27.00;87.20;;;;;;5003922;28;20227;-48
2021/03/18 02:05:24;;;;;;;15.77;4.78;;;27.00;87.00;;;;;;5003571;28;20025;-44
2021/03/18 02:07:52;;;;;;;16.10;4.97;;;27.00;87.00;;;;;;5003836;28;20026;-48
2021/03/18 02:10:31;;;;;;;17.83;4.97;;;27.00;86.90;;;;;;5057219;28;20055;-48
2021/03/18 02:12:59;;;;;;;177.80;14.55;;;27.00;86.90;;;;;;5127090;28;20046;-47
2021/03/18 02:15:40;;;;;;;90.15;10.43;;;27.00;86.90;;;;;;5117061;28;20022;-43
2021/03/18 02:18:38;;;;;;;58.92;8.40;;;27.00;87.10;;;;;;5106014;28;20066;-45
2021/03/18 02:21:26;;;;;;;42.55;7.30;;;27.00;86.70;;;;;;5082184;28;20335;-44
2021/03/18 02:24:14;;;;;;;32.10;5.53;;;27.00;86.80;;;;;;5106335;28;20066;-44
2021/03/18 02:27:08;;;;;;;31.95;7.30;;;27.00;86.80;;;;;;5106313;28;20243;-50
2021/03/18 02:30:11;;;;;;;18.30;7.80;;;27.00;86.70;;;;;;5106471;28;20028;-49
2021/03/18 02:32:55;;;;;;;23.70;8.48;;;27.00;87.60;;;;;;5087523;28;20020;-45
2021/03/18 02:35:45;;;;;;;23.83;7.65;;;27.00;89.50;;;;;;5106567;28;20065;-50
2021/03/18 02:38:34;;;;;;;22.17;7.68;;;26.90;89.90;;;;;;5106258;28;20032;-45
2021/03/18 02:41:20;;;;;;;16.63;7.03;;;26.80;90.20;;;;;;5103317;28;20024;-43
2021/03/18 02:43:56;;;;;;;16.92;6.40;;;26.80;90.40;;;;;;5106632;28;20300;-46
2021/03/18 02:46:24;;;;;;;17.83;6.72;;;26.70;90.40;;;;;;5106310;28;20076;-49
2021/03/18 02:48:55;;;;;;;16.17;6.82;;;26.80;90.60;;;;;;5088135;28;20078;-43
2021/03/18 02:51:26;;;;;;;16.83;7.40;;;26.80;90.80;;;;;;5106341;28;20091;-46
2021/03/18 02:53:53;;;;;;;21.60;6.95;;;26.80;90.90;;;;;;5106371;28;20032;-44
2021/03/18 02:56:21;;;;;;;13.52;6.30;;;26.70;90.90;;;;;;5105706;28;20312;-46
2021/03/18 02:58:52;;;;;;;13.00;6.63;;;26.80;91.00;;;;;;5106220;28;20099;-46
2021/03/18 03:01:23;;;;;;;14.77;6.35;;;26.80;91.30;;;;;;5118742;28;20028;-46
2021/03/18 03:03:54;;;;;;;15.38;6.18;;;26.70;91.30;;;;;;5121194;28;20320;-47
2021/03/18 03:06:21;;;;;;;13.85;6.40;;;26.70;91.30;;;;;;5099592;28;20246;-48
2021/03/18 03:08:53;;;;;;;12.90;6.40;;;26.70;91.50;;;;;;5105836;28;20279;-49
2021/03/18 03:11:32;;;;;;;10.75;6.35;;;26.70;91.60;;;;;;5030141;28;20077;-48
2021/03/18 03:14:00;;;;;;;14.52;6.35;;;26.70;91.70;;;;;;5022930;28;20045;-46
2021/03/18 03:16:28;;;;;;;16.85;6.50;;;26.70;91.80;;;;;;5023221;28;20020;-45
2021/03/18 03:18:57;;;;;;;15.80;6.00;;;26.70;91.80;;;;;;5023082;28;20037;-49
2021/03/18 03:21:25;;;;;;;11.27;6.15;;;26.70;91.90;;;;;;5022629;28;20026;-44
2021/03/18 03:23:54;;;;;;;19.42;7.30;;;26.70;92.00;;;;;;5023140;28;20033;-45
2021/03/18 03:26:24;;;;;;;13.95;6.70;;;26.70;92.00;;;;;;5022917;28;20018;-51
2021/03/18 03:28:52;;;;;;;11.50;5.75;;;26.70;91.80;;;;;;5022970;28;20307;-50
2021/03/18 03:31:19;;;;;;;9.40;5.18;;;26.60;91.80;;;;;;5023065;28;20093;-43
2021/03/18 03:33:47;;;;;;;12.73;5.70;;;26.60;91.70;;;;;;5023220;28;20326;-44
2021/03/18 03:36:17;;;;;;;11.13;5.75;;;26.60;91.60;;;;;;5022723;28;20024;-47
2021/03/18 03:38:43;;;;;;;13.85;5.53;;;26.70;91.60;;;;;;5023289;28;20030;-51
2021/03/18 03:41:11;;;;;;;15.95;6.00;;;26.70;91.60;;;;;;5022660;28;20022;-45
2021/03/18 03:43:37;;;;;;;12.45;5.50;;;26.70;91.50;;;;;;5022608;28;20018;-46
2021/03/18 03:46:05;;;;;;;10.73;5.05;;;26.60;91.40;;;;;;5022958;28;20114;-44
2021/03/18 03:48:33;;;;;;;9.85;4.88;;;26.60;91.40;;;;;;5022548;28;20018;-46
2021/03/18 03:51:02;;;;;;;12.77;5.13;;;26.60;91.00;;;;;;5022318;28;20059;-44
2021/03/18 03:53:40;;;;;;;17.38;5.30;;;26.50;90.90;;;;;;5022432;28;20059;-52
2021/03/18 03:56:49;;;;;;;13.68;5.07;;;26.60;90.90;;;;;;5022743;28;20037;-46
2021/03/18 03:59:22;;;;;;;8.68;4.82;;;26.50;90.80;;;;;;5018395;28;20046;-49
2021/03/18 04:01:59;;;;;;;14.00;4.93;;;26.50;90.70;;;;;;5022904;28;20215;-45
2021/03/18 04:04:43;;;;;;;10.60;5.03;;;26.50;90.70;;;;;;5004529;28;20052;-44
2021/03/18 04:07:25;;;;;;;13.35;5.47;;;26.40;90.50;;;;;;5022351;28;20025;-50
2021/03/18 04:09:52;;;;;;;10.93;4.90;;;26.40;90.60;;;;;;5021793;28;20143;-43
2021/03/18 04:12:23;;;;;;;9.20;4.70;;;26.40;90.50;;;;;;5024496;28;20096;-47
2021/03/18 04:15:02;;;;;;;13.95;5.05;;;26.40;90.50;;;;;;5032641;28;20017;-47
2021/03/18 04:17:31;;;;;;;12.15;4.75;;;26.30;90.60;;;;;;5041909;28;20217;-45
2021/03/18 04:20:00;;;;;;;12.05;4.70;;;26.40;90.50;;;;;;5037420;28;20025;-46
2021/03/18 04:22:29;;;;;;;14.02;4.78;;;26.30;90.40;;;;;;5014525;28;20044;-44
2021/03/18 04:24:57;;;;;;;12.25;5.18;;;26.40;90.30;;;;;;5023811;28;20062;-46
2021/03/18 04:27:25;;;;;;;10.82;5.07;;;26.30;90.30;;;;;;5041244;28;20029;-44
2021/03/18 04:29:52;;;;;;;11.63;4.78;;;26.30;90.20;;;;;;5041533;28;20032;-47
2021/03/18 04:32:19;;;;;;;12.63;5.10;;;26.30;90.20;;;;;;5041672;28;20017;-47
2021/03/18 04:34:47;;;;;;;10.68;4.50;;;26.40;90.10;;;;;;5041131;28;20358;-47
2021/03/18 04:37:14;;;;;;;12.48;4.53;;;26.30;90.10;;;;;;5041331;28;20032;-44
2021/03/18 04:39:42;;;;;;;10.27;4.97;;;26.30;90.00;;;;;;5041228;28;20036;-43
2021/03/18 04:42:12;;;;;;;9.40;4.80;;;26.30;90.10;;;;;;5041030;28;20203;-45
2021/03/18 04:44:42;;;;;;;11.25;5.10;;;26.30;90.00;;;;;;5041457;28;20021;-45
2021/03/18 04:47:09;;;;;;;12.30;4.97;;;26.30;90.00;;;;;;5041336;28;20071;-45
2021/03/18 04:49:38;;;;;;;12.10;4.70;;;26.30;90.00;;;;;;5040838;28;20084;-53
2021/03/18 04:52:05;;;;;;;11.85;4.28;;;26.30;89.80;;;;;;5041020;28;20034;-46
2021/03/18 04:54:32;;;;;;;10.75;4.22;;;26.30;89.70;;;;;;5041043;28;20085;-48
2021/03/18 04:56:59;;;;;;;10.23;4.28;;;26.30;89.60;;;;;;5041051;28;20202;-43
2021/03/18 04:59:27;;;;;;;10.90;4.25;;;26.30;89.30;;;;;;5040638;28;20030;-43
2021/03/18 05:01:54;;;;;;;12.32;4.38;;;26.30;89.20;;;;;;5041497;28;20020;-45
2021/03/18 05:04:22;;;;;;;8.70;4.10;;;26.30;89.30;;;;;;5040806;28;20036;-45
2021/03/18 05:06:54;;;;;;;10.43;4.03;;;26.30;89.00;;;;;;5041393;28;20022;-47
2021/03/18 05:09:25;;;;;;;7.00;4.00;;;26.30;88.60;;;;;;5006822;28;20218;-44
2021/03/18 05:11:53;;;;;;;8.98;3.83;;;26.30;88.70;;;;;;5041280;28;20067;-45
2021/03/18 05:14:20;;;;;;;10.68;3.97;;;26.30;88.50;;;;;;5041002;28;20018;-45
2021/03/18 05:16:49;;;;;;;10.82;4.22;;;26.30;88.50;;;;;;5041115;28;20029;-46
2021/03/18 05:19:17;;;;;;;9.13;4.30;;;26.30;88.20;;;;;;5040939;28;20032;-44
2021/03/18 05:21:46;;;;;;;9.05;3.53;;;26.30;88.30;;;;;;5040712;28;20021;-43
2021/03/18 05:24:14;;;;;;;8.90;3.88;;;26.20;87.90;;;;;;5041447;28;20029;-46
2021/03/18 05:26:42;;;;;;;8.50;3.65;;;26.20;88.00;;;;;;5044648;28;20023;-45
2021/03/18 05:29:10;;;;;;;8.15;3.80;;;26.20;88.10;;;;;;5044124;28;20082;-45
2021/03/18 05:31:37;;;;;;;10.48;4.07;;;26.20;87.90;;;;;;5044418;28;20029;-45
2021/03/18 05:34:04;;;;;;;8.43;4.13;;;26.30;87.90;;;;;;5044080;28;20021;-45
2021/03/18 05:36:31;;;;;;;8.30;3.58;;;26.30;87.70;;;;;;5044476;28;20030;-48
2021/03/18 05:38:58;;;;;;;5.82;3.60;;;26.30;87.50;;;;;;5043694;28;20252;-43
2021/03/18 05:41:27;;;;;;;6.88;3.80;;;26.30;87.40;;;;;;5044289;28;20032;-43
2021/03/18 05:43:54;;;;;;;7.68;3.92;;;26.20;87.10;;;;;;5044305;28;20022;-45
2021/03/18 05:46:21;;;;;;;11.68;4.10;;;26.30;87.00;;;;;;5044071;28;20024;-46
2021/03/18 05:48:48;;;;;;;10.55;3.55;;;26.30;86.70;;;;;;5044156;28;20029;-44
2021/03/18 05:51:16;;;;;;;9.00;3.65;;;26.30;86.20;;;;;;5044049;28;20021;-44
2021/03/18 05:53:44;;;;;;;7.82;3.33;;;26.20;86.20;;;;;;5043698;28;20036;-44
2021/03/18 05:56:19;;;;;;;8.43;3.80;;;26.30;86.20;;;;;;5043756;28;20048;-44
2021/03/18 05:58:47;;;;;;;6.05;3.30;;;26.20;86.00;;;;;;5043499;28;20021;-44
2021/03/18 06:01:15;;;;;;;6.15;3.30;;;26.30;86.20;;;;;;5043649;28;20025;-45
2021/03/18 06:03:42;;;;;;;6.85;3.63;;;26.30;86.60;;;;;;5043481;28;20017;-45
2021/03/18 06:06:10;;;;;;;7.53;3.60;;;26.30;86.00;;;;;;5043357;28;20057;-45
2021/03/18 06:08:41;;;;;;;6.50;3.40;;;26.20;86.30;;;;;;5043271;28;20043;-44
2021/03/18 06:11:09;;;;;;;7.40;3.40;;;26.30;86.00;;;;;;5043500;28;20095;-45
2021/03/18 06:13:37;;;;;;;7.22;3.40;;;26.30;86.10;;;;;;5043385;28;20318;-46
2021/03/18 06:16:05;;;;;;;9.82;3.60;;;26.30;86.00;;;;;;5043481;28;20033;-44
2021/03/18 06:18:36;;;;;;;5.70;3.30;;;26.30;85.70;;;;;;5043383;28;20210;-44
2021/03/18 06:21:03;;;;;;;7.35;3.45;;;26.30;85.50;;;;;;5043200;28;20026;-44
2021/03/18 06:23:32;;;;;;;9.02;3.05;;;26.30;85.60;;;;;;5043126;28;20032;-44
2021/03/18 06:25:59;;;;;;;8.70;3.33;;;26.30;85.10;;;;;;5043568;28;20030;-47
2021/03/18 06:28:30;;;;;;;10.88;3.20;;;26.30;85.00;;;;;;5042957;28;20018;-45
2021/03/18 06:31:10;;;;;;;7.15;3.20;;;26.30;84.90;;;;;;5043234;28;20060;-44
2021/03/18 06:33:43;;;;;;;6.20;3.30;;;26.30;84.90;;;;;;5042981;28;20055;-45
2021/03/18 06:36:21;;;;;;;7.57;3.00;;;26.30;84.90;;;;;;5042827;28;20029;-46
2021/03/18 06:39:17;;;;;;;6.95;3.03;;;26.30;84.90;;;;;;5043013;28;20040;-44
2021/03/18 06:41:55;;;;;;;6.10;3.17;;;26.30;84.80;;;;;;5042862;28;20100;-44
2021/03/18 06:44:23;;;;;;;8.45;3.17;;;26.30;84.10;;;;;;5042727;28;20029;-47
2021/03/18 06:46:52;;;;;;;10.93;2.97;;;26.40;84.50;;;;;;5043356;28;20013;-45
2021/03/18 06:49:21;;;;;;;6.05;2.58;;;26.30;84.20;;;;;;5042790;28;20025;-44
2021/03/18 06:52:10;;;;;;;5.57;2.70;;;26.30;84.00;;;;;;5043048;28;20025;-44
2021/03/18 06:54:44;;;;;;;7.80;2.60;;;26.40;84.10;;;;;;5042650;28;20029;-44
2021/03/18 06:57:12;;;;;;;6.57;2.78;;;26.40;84.40;;;;;;5042630;28;20296;-45
2021/03/18 06:59:42;;;;;;;11.18;2.90;;;26.40;84.60;;;;;;5042559;28;20044;-45
2021/03/18 07:02:14;;;;;;;7.00;2.67;;;26.40;84.40;;;;;;5042497;28;20030;-46
2021/03/18 07:04:46;;;;;;;6.68;3.00;;;26.40;84.80;;;;;;5042408;28;20021;-44
2021/03/18 07:07:14;;;;;;;7.10;2.80;;;26.40;84.60;;;;;;5024940;28;20033;-44
2021/03/18 07:09:43;;;;;;;9.30;2.97;;;26.40;84.30;;;;;;5042168;28;20041;-43
2021/03/18 07:12:12;;;;;;;7.95;2.83;;;26.40;84.10;;;;;;5042403;28;20410;-44
2021/03/18 07:14:45;;;;;;;4.97;2.58;;;26.40;84.10;;;;;;5042246;28;20309;-47
2021/03/18 07:17:19;;;;;;;5.32;2.63;;;26.40;84.20;;;;;;5042449;28;20044;-44
2021/03/18 07:19:46;;;;;;;7.65;2.53;;;26.40;84.00;;;;;;5042261;28;20018;-43
2021/03/18 07:22:20;;;;;;;8.05;2.97;;;26.30;83.90;;;;;;5042155;28;20037;-47
2021/03/18 07:24:56;;;;;;;6.57;2.72;;;26.40;83.90;;;;;;5042367;28;20021;-44
2021/03/18 07:27:23;;;;;;;10.35;2.78;;;26.40;83.80;;;;;;5042157;28;20045;-47
2021/03/18 07:29:51;;;;;;;5.15;2.63;;;26.40;83.80;;;;;;5042251;28;20021;-47
2021/03/18 07:32:17;;;;;;;6.15;2.72;;;26.40;83.70;;;;;;5042234;28;20029;-48
2021/03/18 07:34:45;;;;;;;5.80;2.30;;;26.40;83.60;;;;;;5041885;28;20084;-45
2021/03/18 07:37:12;;;;;;;6.40;2.72;;;26.40;83.80;;;;;;5042054;28;20104;-45
2021/03/18 07:39:40;;;;;;;6.80;2.58;;;26.40;83.80;;;;;;5041915;28;20302;-46
2021/03/18 07:42:09;;;;;;;8.00;3.17;;;26.40;83.90;;;;;;5041908;28;20094;-47
2021/03/18 07:44:36;;;;;;;9.98;3.03;;;26.40;84.30;;;;;;5041933;28;20049;-48
2021/03/18 07:47:04;;;;;;;9.18;3.00;;;26.40;84.50;;;;;;5041472;28;20066;-44
2021/03/18 07:49:41;;;;;;;7.75;2.80;;;26.40;84.50;;;;;;5041110;28;20202;-49
2021/03/18 07:52:20;;;;;;;6.57;2.97;;;26.40;84.60;;;;;;5041833;28;20021;-44
2021/03/18 07:54:50;;;;;;;3.97;2.47;;;26.40;84.70;;;;;;5041746;28;20018;-45
2021/03/18 07:57:17;;;;;;;5.70;2.65;;;26.40;84.50;;;;;;5041594;28;20025;-46
2021/03/18 07:59:45;;;;;;;5.95;2.60;;;26.40;84.20;;;;;;5041695;28;20373;-51
2021/03/18 08:02:17;;;;;;;10.52;3.10;;;26.40;84.10;;;;;;5041595;28;20033;-48
2021/03/18 08:04:52;;;;;;;6.25;2.60;;;26.40;84.00;;;;;;5041502;28;20017;-44
2021/03/18 08:07:50;;;;;;;5.32;2.90;;;26.40;84.00;;;;;;5041492;28;20092;-48
2021/03/18 08:10:22;;;;;;;7.88;2.60;;;26.40;84.40;;;;;;5041562;28;20218;-44
2021/03/18 08:12:53;;;;;;;;;;;26.40;83.60;;;;;;5041844;28;20025;-50
2021/03/18 08:15:22;;;;;;;10.88;2.72;;;26.30;83.80;;;;;;5041716;28;20173;-44
2021/03/18 08:17:50;;;;;;;9.65;2.60;;;26.40;84.30;;;;;;5041500;28;20221;-45
2021/03/18 08:20:43;;;;;;;6.63;2.58;;;26.30;83.70;;;;;;5041351;28;20294;-47
2021/03/18 08:23:24;;;;;;;9.25;2.58;;;26.30;83.60;;;;;;5040985;28;20029;-45
2021/03/18 08:26:02;;;;;;;10.20;3.03;;;26.30;83.20;;;;;;5041634;28;20218;-45
2021/03/18 08:28:56;;;;;;;8.00;2.47;;;26.30;83.30;;;;;;5041227;28;20358;-45
2021/03/18 08:31:41;;;;;;;6.57;2.60;;;26.30;83.70;;;;;;5041632;28;20302;-47
2021/03/18 08:34:09;;;;;;;7.40;2.75;;;26.30;83.50;;;;;;5041220;28;20045;-44
2021/03/18 08:36:53;;;;;;;6.45;2.03;;;26.40;83.80;;;;;;5041120;28;20062;-46
2021/03/18 08:39:46;;;;;;;6.97;2.70;;;26.30;83.90;;;;;;5041236;28;20026;-48
2021/03/18 08:42:31;;;;;;;;;;;26.30;83.40;;;;;;5041647;28;20037;-44
2021/03/18 08:45:10;;;;;;;6.43;2.78;;;26.30;83.40;;;;;;5040996;28;19940;-50
2021/03/18 08:47:41;;;;;;;5.95;2.60;;;26.30;83.50;;;;;;5040909;28;20393;-48
2021/03/18 08:50:11;;;;;;;5.35;2.05;;;26.30;83.40;;;;;;5041235;28;20021;-45
2021/03/18 08:52:45;;;;;;;6.43;2.47;;;26.30;83.40;;;;;;5040816;28;20025;-49
2021/03/18 08:55:13;;;;;;;8.90;2.50;;;26.40;83.50;;;;;;5041119;28;20021;-50
2021/03/18 08:57:40;;;;;;;10.02;2.53;;;26.30;83.30;;;;;;5040931;28;20229;-50
2021/03/18 09:00:18;;;;;;;5.55;2.20;;;26.30;83.20;;;;;;5040389;28;20325;-45
2021/03/18 09:02:45;;;;;;;10.02;2.90;;;26.30;83.60;;;;;;5040902;28;20093;-46
2021/03/18 09:05:19;;;;;;;6.80;2.70;;;26.40;83.60;;;;;;5040946;28;20026;-48
2021/03/18 09:07:50;;;;;;;10.70;2.60;;;26.30;83.60;;;;;;5040878;28;20024;-44
2021/03/18 09:10:24;;;;;;;8.50;2.60;;;26.40;83.60;;;;;;5040918;28;20087;-44
2021/03/18 09:12:56;;;;;;;6.07;2.28;;;26.30;83.10;;;;;;5040564;28;20037;-52
2021/03/18 09:15:25;;;;;;;7.60;2.33;;;26.30;83.40;;;;;;5040873;28;20040;-45
2021/03/18 09:17:57;;;;;;;8.40;2.63;;;26.30;83.40;;;;;;5040931;28;20310;-45
2021/03/18 09:20:30;;;;;;;10.82;2.40;;;26.30;83.70;;;;;;5040984;28;20021;-42
2021/03/18 09:23:11;;;;;;;5.68;2.75;;;26.40;84.00;;;;;;5041316;28;20030;-43
2021/03/18 09:25:38;;;;;;;8.45;2.80;;;26.40;84.00;;;;;;5041467;28;20317;-44
2021/03/18 09:28:06;;;;;;;8.60;2.90;;;26.40;84.30;;;;;;5041042;28;20036;-44
2021/03/18 09:30:43;;;;;;;8.48;2.75;;;26.30;83.70;;;;;;5041104;28;20071;-44
2021/03/18 09:33:19;;;;;;;11.77;2.83;;;26.40;84.20;;;;;;5041142;28;20021;-49
2021/03/18 09:35:49;;;;;;;6.25;2.63;;;26.40;84.50;;;;;;5023161;28;20028;-45
2021/03/18 09:38:26;;;;;;;7.30;2.90;;;26.40;83.70;;;;;;5040789;28;20029;-45
2021/03/18 09:40:55;;;;;;;8.07;2.72;;;26.40;84.10;;;;;;5041282;28;20090;-44
2021/03/18 09:43:23;;;;;;;9.07;2.75;;;26.30;83.70;;;;;;5040390;28;20058;-46
2021/03/18 09:45:56;;;;;;;9.10;2.75;;;26.40;84.10;;;;;;5040354;28;20021;-46
2021/03/18 09:48:49;;;;;;;10.80;3.22;;;26.30;84.30;;;;;;5040640;28;20341;-47
2021/03/18 09:51:17;;;;;;;8.82;3.05;;;26.40;85.00;;;;;;5040260;28;20044;-50
2021/03/18 09:53:54;;;;;;;9.63;2.78;;;26.30;84.40;;;;;;5040256;28;20029;-51
2021/03/18 09:56:21;;;;;;;9.65;3.30;;;26.30;84.20;;;;;;5040883;28;20088;-48
2021/03/18 09:58:48;;;;;;;9.85;3.35;;;26.30;84.90;;;;;;5040974;28;20026;-50
2021/03/18 10:01:19;;;;;;;10.68;3.42;;;26.30;85.00;;;;;;5040436;28;20029;-49
2021/03/18 10:03:56;;;;;;;9.77;3.38;;;26.30;84.80;;;;;;5040897;28;20062;-48
2021/03/18 10:06:48;;;;;;;9.32;3.05;;;26.30;84.60;;;;;;5041119;28;20118;-48
2021/03/18 10:09:23;;;;;;;8.57;3.13;;;26.30;84.90;;;;;;5040385;28;20028;-48
2021/03/18 10:11:55;;;;;;;8.80;4.20;;;26.30;85.00;;;;;;5042551;28;20030;-46
2021/03/18 10:14:22;;;;;;;8.20;3.10;;;26.30;85.50;;;;;;5043654;28;20013;-48
2021/03/18 10:16:50;;;;;;;8.80;4.00;;;26.30;85.40;;;;;;5044148;28;20037;-50
2021/03/18 10:19:23;;;;;;;13.77;4.40;;;26.30;85.60;;;;;;5043989;28;20206;-48
2021/03/18 10:21:52;;;;;;;12.18;4.95;;;26.30;84.80;;;;;;5043281;28;20048;-52
2021/03/18 10:24:19;;;;;;;13.63;4.05;;;26.30;85.50;;;;;;5043684;28;20021;-53
2021/03/18 10:26:47;;;;;;;12.38;4.00;;;26.30;85.60;;;;;;5044028;28;20025;-47
2021/03/18 10:29:14;;;;;;;10.93;4.95;;;26.30;85.80;;;;;;5043284;28;20084;-44
2021/03/18 10:31:42;;;;;;;12.55;5.28;;;26.30;86.70;;;;;;5043837;28;20026;-42
2021/03/18 10:34:25;;;;;;;17.30;5.70;;;26.30;86.20;;;;;;5043151;28;20032;-40
2021/03/18 10:36:52;;;;;;;13.77;4.63;;;26.30;86.30;;;;;;5043887;28;20049;-45
2021/03/18 10:39:23;;;;;;;14.65;4.90;;;26.20;86.20;;;;;;5043291;28;20304;-44
2021/03/18 10:41:58;;;;;;;22.03;4.50;;;26.20;86.70;;;;;;5037147;28;20034;-43
2021/03/18 10:44:39;;;;;;;12.88;4.15;;;26.20;86.60;;;;;;5022933;28;20214;-47
2021/03/18 10:47:17;;;;;;;16.13;4.70;;;26.20;86.60;;;;;;5023115;28;20030;-49
2021/03/18 10:50:06;;;;;;;8.75;3.67;;;26.20;87.20;;;;;;5022873;28;20029;-50
2021/03/18 10:52:34;;;;;;;14.43;4.00;;;26.20;87.00;;;;;;5023523;28;20234;-49
2021/03/18 10:55:00;;;;;;;12.52;3.83;;;26.20;86.60;;;;;;5023051;28;20048;-49
2021/03/18 10:57:28;;;;;;;11.27;4.30;;;26.20;87.20;;;;;;5023124;28;20018;-48
2021/03/18 11:00:05;;;;;;;15.75;4.50;;;26.20;87.50;;;;;;5023150;28;20219;-47
2021/03/18 11:02:31;;;;;;;9.07;3.55;;;26.10;87.30;;;;;;5023091;28;20032;-50
2021/03/18 11:05:01;;;;;;;10.27;4.60;;;26.10;86.80;;;;;;5023209;28;20045;-47
2021/03/18 11:07:29;;;;;;;13.05;4.22;;;26.10;87.60;;;;;;5022615;28;20018;-43
2021/03/18 11:10:13;;;;;;;29.60;5.63;;;26.10;88.50;;;;;;5019414;28;20085;-45
2021/03/18 11:12:41;;;;;;;14.73;4.47;;;26.10;88.80;;;;;;5022601;28;20024;-45
2021/03/18 11:15:11;;;;;;;22.35;5.22;;;26.10;88.70;;;;;;5023185;28;20025;-47
2021/03/18 11:17:38;;;;;;;12.43;4.10;;;26.10;88.90;;;;;;5021532;28;20085;-50
2021/03/18 11:20:16;;;;;;;14.38;4.55;;;26.10;88.80;;;;;;5023075;28;20049;-45
2021/03/18 11:22:44;;;;;;;17.70;4.75;;;26.10;88.50;;;;;;5022720;28;20025;-45
2021/03/18 11:25:11;;;;;;;12.25;4.55;;;26.10;89.10;;;;;;5023476;28;20097;-45
2021/03/18 11:27:38;;;;;;;18.48;6.10;;;26.10;89.20;;;;;;5022863;28;20090;-49
2021/03/18 11:30:07;;;;;;;15.45;5.10;;;26.10;89.00;;;;;;5023460;28;20289;-45
2021/03/18 11:32:34;;;;;;;14.65;5.30;;;26.10;88.90;;;;;;5022877;28;20387;-47
2021/03/18 11:35:01;;;;;;;14.57;4.72;;;26.10;88.10;;;;;;5022629;28;20042;-48
2021/03/18 11:37:29;;;;;;;11.00;4.50;;;26.10;87.60;;;;;;5022570;28;20018;-48
2021/03/18 11:39:55;;;;;;;12.05;5.15;;;26.10;87.80;;;;;;5022892;28;20108;-47
2021/03/18 11:42:22;;;;;;;16.80;4.97;;;26.10;87.80;;;;;;5022624;28;20025;-50
2021/03/18 11:44:49;;;;;;;18.88;5.03;;;26.10;87.80;;;;;;5005367;28;20022;-44
2021/03/18 11:47:16;;;;;;;13.57;4.75;;;26.10;88.00;;;;;;5022529;28;20022;-44
2021/03/18 11:49:44;;;;;;;14.38;4.53;;;26.10;88.00;;;;;;5022329;28;20021;-47
2021/03/18 11:52:12;;;;;;;13.45;4.43;;;26.10;88.30;;;;;;5022200;28;20093;-47
2021/03/18 11:54:39;;;;;;;16.02;4.75;;;26.10;87.90;;;;;;5022107;28;20081;-57
2021/03/18 11:57:07;;;;;;;13.23;4.38;;;26.10;88.00;;;;;;5022155;28;20126;-46
2021/03/18 11:59:34;;;;;;;12.90;4.00;;;26.10;87.80;;;;;;5021083;28;20033;-45
2021/03/18 12:02:01;;;;;;;10.82;4.20;;;26.10;87.80;;;;;;5022812;28;20089;-45
2021/03/18 12:04:28;;;;;;;14.80;4.22;;;26.10;87.80;;;;;;5022698;28;20145;-45
2021/03/18 12:06:54;;;;;;;10.43;4.32;;;26.10;87.80;;;;;;5022574;28;20295;-48
2021/03/18 12:09:21;;;;;;;14.38;4.75;;;26.10;87.80;;;;;;5022198;28;20149;-46
2021/03/18 12:11:47;;;;;;;14.82;4.70;;;26.10;87.90;;;;;;5022760;28;20029;-48
2021/03/18 12:14:14;;;;;;;12.23;5.47;;;26.10;88.20;;;;;;5021988;28;20237;-47
2021/03/18 12:16:42;;;;;;;15.70;5.53;;;26.10;88.10;;;;;;5022427;28;20036;-57
2021/03/18 12:19:09;;;;;;;14.93;5.60;;;26.10;88.40;;;;;;5021853;28;20022;-52
2021/03/18 12:21:36;;;;;;;51.47;8.77;;;26.10;88.10;;;;;;5022491;28;20026;-47
2021/03/18 12:24:03;;;;;;;43.63;10.02;;;26.10;88.70;;;;;;5022307;28;20265;-43
2021/03/18 12:26:29;;;;;;;58.80;10.10;;;26.10;88.30;;;;;;5022083;28;20037;-45
2021/03/18 12:28:56;;;;;;;123.57;14.00;;;26.20;88.00;;;;;;5021729;28;20024;-50
2021/03/18 12:31:23;;;;;;;141.07;16.00;;;26.20;87.90;;;;;;5022499;28;20030;-45
2021/03/18 12:33:50;;;;;;;96.40;15.70;;;26.20;88.60;;;;;;5021358;28;20310;-45
2021/03/18 12:36:17;;;;;;;93.45;16.05;;;26.20;88.80;;;;;;5021880;28;20033;-46
2021/03/18 12:38:44;;;;;;;122.90;20.98;;;26.20;88.70;;;;;;5021845;28;20311;-44
2021/03/18 12:41:11;;;;;;;151.70;19.20;;;26.20;89.00;;;;;;5022087;28;20044;-51
2021/03/18 12:43:37;;;;;;;120.72;15.65;;;26.20;88.10;;;;;;5021988;28;20014;-45
2021/03/18 12:46:04;;;;;;;92.78;14.55;;;26.20;88.20;;;;;;5022039;28;20026;-48
2021/03/18 12:48:31;;;;;;;51.85;9.27;;;26.20;88.70;;;;;;5021567;28;20266;-47
2021/03/18 12:50:58;;;;;;;56.85;11.15;;;26.30;88.90;;;;;;5021363;28;20095;-48
2021/03/18 12:53:27;;;;;;;50.17;9.65;;;26.30;88.40;;;;;;5021549;28;20022;-50
2021/03/18 12:55:54;;;;;;;70.53;10.93;;;26.20;88.40;;;;;;5021496;28;20030;-47
2021/03/18 12:58:21;;;;;;;67.78;11.50;;;26.30;88.60;;;;;;5021562;28;20310;-45
2021/03/18 13:00:47;;;;;;;59.67;10.35;;;26.30;89.30;;;;;;5021529;28;20034;-46
2021/03/18 13:03:14;;;;;;;52.03;9.85;;;26.30;89.60;;;;;;5021553;28;20022;-46
2021/03/18 13:05:41;;;;;;;34.10;9.43;;;26.30;89.20;;;;;;5021529;28;20032;-51
2021/03/18 13:08:08;;;;;;;24.13;8.10;;;26.30;89.00;;;;;;5021268;28;20025;-43
2021/03/18 13:10:34;;;;;;;40.03;9.27;;;26.30;88.60;;;;;;5021362;28;20229;-46
2021/03/18 13:13:01;;;;;;;23.63;8.23;;;26.40;89.40;;;;;;5021315;28;20026;-49
2021/03/18 13:15:28;;;;;;;21.30;7.55;;;26.30;89.30;;;;;;5021511;28;20040;-44
2021/03/18 13:17:54;;;;;;;18.02;7.03;;;26.30;89.10;;;;;;5021082;28;20029;-44
2021/03/18 13:20:23;;;;;;;20.38;5.85;;;26.40;89.20;;;;;;5021591;28;20056;-46
2021/03/18 13:22:50;;;;;;;21.33;7.07;;;26.40;89.30;;;;;;5021095;28;20045;-45